Time;durP1;ratioP1;P1;durP2;ratioP2;P2;SDS_P1;SDS_P2;PMS_P1;PMS_P2;Temp;Humidity;BMP_temperature;BMP_pressure;BME280_temperature;BME280_humidity;BME280_pressure;Samples;Min_cycle;Max_cycle;Signal;HPM_P1;HPM_P2
2023/04/29 00:01:22;;;;;;;25.73;16.35;;;9.00;99.90;;;;;;5049780;28;20036;-60
2023/04/29 00:03:48;;;;;;;25.60;16.90;;;9.00;99.90;;;;;;5049674;28;20041;-60
2023/04/29 00:06:14;;;;;;;24.52;16.63;;;9.00;99.90;;;;;;5050489;28;20037;-60
2023/04/29 00:08:40;;;;;;;25.80;17.63;;;9.00;99.90;;;;;;5034483;28;20063;-60
2023/04/29 00:11:06;;;;;;;30.67;18.00;;;8.90;99.90;;;;;;5053016;28;20057;-60
2023/04/29 00:13:32;;;;;;;26.65;17.35;;;8.90;99.90;;;;;;5053607;28;20053;-60
2023/04/29 00:15:57;;;;;;;25.83;18.55;;;8.90;99.90;;;;;;5055461;28;20486;-60
2023/04/29 00:18:23;;;;;;;30.52;18.70;;;8.90;99.90;;;;;;5052714;28;20368;-60
2023/04/29 00:20:48;;;;;;;29.23;19.55;;;8.90;99.90;;;;;;5053695;28;20064;-61
2023/04/29 00:23:14;;;;;;;28.35;18.17;;;8.90;99.90;;;;;;5037190;28;20041;-60
2023/04/29 00:25:40;;;;;;;25.63;18.70;;;8.90;99.90;;;;;;5052872;28;20414;-60
2023/04/29 00:28:05;;;;;;;32.75;19.48;;;8.90;99.90;;;;;;5055123;28;20049;-61
2023/04/29 00:30:33;;;;;;;28.35;17.77;;;8.90;99.90;;;;;;5053064;28;20056;-60
2023/04/29 00:32:59;;;;;;;23.92;16.83;;;8.90;99.90;;;;;;5052828;28;20490;-60
2023/04/29 00:35:24;;;;;;;25.88;16.48;;;8.90;99.90;;;;;;5053113;28;20051;-60
2023/04/29 00:37:50;;;;;;;27.35;18.63;;;8.90;99.90;;;;;;5054153;28;20033;-60
2023/04/29 00:40:16;;;;;;;32.00;18.98;;;8.90;99.90;;;;;;5036672;28;20052;-60
2023/04/29 00:42:42;;;;;;;30.05;19.35;;;8.90;99.90;;;;;;5054565;28;20043;-60
2023/04/29 00:45:10;;;;;;;28.50;18.73;;;8.90;99.90;;;;;;5052739;28;20413;-60
2023/04/29 00:47:36;;;;;;;35.85;20.38;;;8.90;99.90;;;;;;5054256;28;20501;-60
2023/04/29 00:50:02;;;;;;;30.23;19.73;;;8.90;99.90;;;;;;5053796;28;20552;-60
2023/04/29 00:52:30;;;;;;;27.58;17.77;;;8.90;99.90;;;;;;5052155;28;20079;-60
2023/04/29 00:54:57;;;;;;;28.88;17.38;;;8.90;99.90;;;;;;5054341;28;20120;-60
2023/04/29 00:57:22;;;;;;;36.17;19.38;;;8.90;99.90;;;;;;5052697;28;20049;-60
2023/04/29 00:59:48;;;;;;;31.95;20.02;;;8.90;99.90;;;;;;5052537;28;20623;-60
2023/04/29 01:02:16;;;;;;;32.85;19.42;;;8.90;99.90;;;;;;5053655;28;20083;-60
2023/04/29 01:04:42;;;;;;;35.53;18.95;;;9.00;99.90;;;;;;5036377;28;20121;-60
2023/04/29 01:07:27;;;;;;;29.92;18.60;;;9.00;99.90;;;;;;5052179;28;20044;-60
2023/04/29 01:09:56;;;;;;;30.00;18.80;;;8.90;99.90;;;;;;5053019;28;20110;-61
2023/04/29 01:12:40;;;;;;;26.63;18.65;;;8.90;99.90;;;;;;5053735;28;20128;-60
2023/04/29 01:15:25;;;;;;;31.65;19.05;;;8.90;99.90;;;;;;5053467;28;20051;-60
2023/04/29 01:18:11;;;;;;;30.77;18.27;;;9.00;99.90;;;;;;5053112;28;20106;-61
2023/04/29 01:20:38;;;;;;;30.65;19.08;;;8.90;99.90;;;;;;5051471;28;20040;-60
2023/04/29 01:23:03;;;;;;;29.60;18.77;;;8.90;99.90;;;;;;5052619;28;20033;-60
2023/04/29 01:25:29;;;;;;;32.35;18.67;;;8.90;99.90;;;;;;5053585;28;20404;-60
2023/04/29 01:28:01;;;;;;;36.95;19.75;;;8.90;99.90;;;;;;5053166;28;20037;-60
2023/04/29 01:31:05;;;;;;;31.77;18.48;;;8.90;99.90;;;;;;5052058;28;20056;-60
2023/04/29 01:33:36;;;;;;;35.30;19.15;;;8.90;99.90;;;;;;5052037;28;20041;-60
2023/04/29 01:36:26;;;;;;;29.05;18.33;;;8.90;99.90;;;;;;5051840;28;20045;-60
2023/04/29 01:39:03;;;;;;;32.47;18.65;;;8.90;99.90;;;;;;5053321;28;20116;-60
2023/04/29 01:41:41;;;;;;;37.17;18.80;;;8.80;99.90;;;;;;5052392;28;20106;-60
2023/04/29 01:44:08;;;;;;;29.20;18.50;;;8.90;99.90;;;;;;5052617;28;20068;-60
2023/04/29 01:46:36;;;;;;;33.10;20.15;;;8.90;99.90;;;;;;5052060;28;20647;-60
2023/04/29 01:49:02;;;;;;;31.98;21.27;;;8.80;99.90;;;;;;5051636;28;20482;-60
2023/04/29 01:51:28;;;;;;;32.63;20.63;;;8.80;99.90;;;;;;5051650;28;20041;-60
2023/04/29 01:53:54;;;;;;;35.88;24.17;;;8.80;99.90;;;;;;5052266;28;20127;-60
2023/04/29 01:56:19;;;;;;;35.72;22.80;;;8.80;99.90;;;;;;5050746;28;20124;-60
2023/04/29 01:58:45;;;;;;;44.50;24.55;;;8.80;99.90;;;;;;5053612;28;20048;-60
2023/04/29 02:01:11;;;;;;;32.63;21.20;;;8.80;99.90;;;;;;5053377;28;20066;-60
2023/04/29 02:03:37;;;;;;;35.17;21.73;;;8.80;99.90;;;;;;5051808;28;20549;-60
2023/04/29 02:06:05;;;;;;;37.47;21.98;;;8.80;99.90;;;;;;5053488;28;20045;-60
2023/04/29 02:08:31;;;;;;;33.03;19.98;;;8.70;99.90;;;;;;5051354;28;20398;-60
2023/04/29 02:10:58;;;;;;;35.58;20.90;;;8.70;99.90;;;;;;5034357;28;20061;-60
2023/04/29 02:13:24;;;;;;;37.38;21.48;;;8.70;99.90;;;;;;5051326;28;20049;-60
2023/04/29 02:15:50;;;;;;;30.73;18.15;;;8.80;99.90;;;;;;5034892;28;20045;-60
2023/04/29 02:18:16;;;;;;;27.52;18.88;;;8.80;99.90;;;;;;5052469;28;20124;-60
2023/04/29 02:20:42;;;;;;;33.83;19.55;;;8.80;99.90;;;;;;5051614;28;20043;-60
2023/04/29 02:23:07;;;;;;;34.85;18.13;;;8.80;99.90;;;;;;5051713;28;20063;-60
2023/04/29 02:25:33;;;;;;;28.25;18.48;;;8.80;99.90;;;;;;5050475;28;20098;-60
2023/04/29 02:27:59;;;;;;;30.45;16.80;;;8.80;99.90;;;;;;5035058;28;20045;-60
2023/04/29 02:30:24;;;;;;;27.90;16.85;;;8.80;99.90;;;;;;5050520;28;20130;-60
2023/04/29 02:32:50;;;;;;;33.65;17.60;;;8.80;99.90;;;;;;5051005;28;20052;-60
2023/04/29 02:35:16;;;;;;;28.83;16.35;;;8.80;99.90;;;;;;5051313;28;20083;-60
2023/04/29 02:37:41;;;;;;;27.77;16.25;;;8.80;99.90;;;;;;5050442;28;20036;-60
2023/04/29 02:40:08;;;;;;;29.42;16.00;;;8.80;99.90;;;;;;5051496;28;20155;-60
2023/04/29 02:42:33;;;;;;;30.55;15.35;;;8.80;99.90;;;;;;5034286;28;20040;-60
2023/04/29 02:44:59;;;;;;;24.92;14.93;;;8.80;99.90;;;;;;5051682;28;20370;-60
2023/04/29 02:47:25;;;;;;;29.77;16.65;;;8.80;99.90;;;;;;5051923;28;20044;-60
2023/04/29 02:49:51;;;;;;;29.63;17.10;;;8.80;99.90;;;;;;5051312;28;20508;-60
2023/04/29 02:52:17;;;;;;;28.33;17.05;;;8.80;99.90;;;;;;5033790;28;20047;-60
2023/04/29 02:54:43;;;;;;;33.95;16.90;;;8.80;99.90;;;;;;5050749;28;20041;-60
2023/04/29 02:57:09;;;;;;;28.80;17.65;;;8.80;99.90;;;;;;5052389;28;20103;-60
2023/04/29 02:59:34;;;;;;;24.17;15.85;;;8.80;99.90;;;;;;5050962;28;20106;-60
2023/04/29 03:02:00;;;;;;;25.38;15.50;;;8.80;99.90;;;;;;5052277;28;20037;-60
2023/04/29 03:04:27;;;;;;;27.05;16.50;;;8.80;99.90;;;;;;5051566;28;20510;-60
2023/04/29 03:06:55;;;;;;;25.42;14.70;;;8.80;99.90;;;;;;5050453;28;20131;-60
2023/04/29 03:09:21;;;;;;;32.00;15.75;;;8.80;99.90;;;;;;5050410;28;20383;-60
2023/04/29 03:11:48;;;;;;;24.35;14.98;;;8.80;99.90;;;;;;5051274;28;20044;-60
2023/04/29 03:14:13;;;;;;;24.42;13.90;;;8.80;99.90;;;;;;5050169;28;20037;-60
2023/04/29 03:16:39;;;;;;;21.63;12.60;;;8.80;99.90;;;;;;5050137;28;20938;-60
2023/04/29 03:19:05;;;;;;;22.63;13.18;;;8.80;99.90;;;;;;5051005;28;20040;-60
2023/04/29 03:21:31;;;;;;;21.25;12.65;;;8.80;99.90;;;;;;5050744;28;20036;-60
2023/04/29 03:23:57;;;;;;;21.92;11.63;;;8.80;99.90;;;;;;5052139;28;20037;-60
2023/04/29 03:26:23;;;;;;;28.17;13.10;;;8.80;99.90;;;;;;5050263;28;20055;-60
2023/04/29 03:28:50;;;;;;;21.45;13.43;;;8.80;99.90;;;;;;5050035;28;20036;-60
2023/04/29 03:31:16;;;;;;;25.40;15.10;;;8.80;99.90;;;;;;5051683;28;20127;-60
2023/04/29 03:33:42;;;;;;;21.48;14.07;;;8.80;99.90;;;;;;5051103;28;20145;-60
2023/04/29 03:36:08;;;;;;;21.98;14.93;;;8.80;99.90;;;;;;5050435;28;20041;-60
2023/04/29 03:38:34;;;;;;;22.67;14.07;;;8.80;99.90;;;;;;5033721;28;20033;-60
2023/04/29 03:41:00;;;;;;;20.30;12.40;;;8.80;99.90;;;;;;5049865;28;20048;-60
2023/04/29 03:43:26;;;;;;;24.30;11.98;;;8.80;99.90;;;;;;5034290;28;20045;-60
2023/04/29 03:45:51;;;;;;;24.27;12.77;;;8.80;99.90;;;;;;5054712;28;20517;-60
2023/04/29 03:48:18;;;;;;;17.35;10.65;;;8.80;99.90;;;;;;5053336;28;20401;-60
2023/04/29 03:50:44;;;;;;;23.58;12.30;;;8.80;99.90;;;;;;5054669;28;20074;-60
2023/04/29 03:53:11;;;;;;;23.55;12.52;;;8.80;99.90;;;;;;5055911;28;20124;-60
2023/04/29 03:55:37;;;;;;;23.15;12.98;;;8.80;99.90;;;;;;5036740;28;20390;-60
2023/04/29 03:58:02;;;;;;;19.90;10.05;;;8.80;99.90;;;;;;5054529;28;20041;-60
2023/04/29 04:00:30;;;;;;;17.02;9.70;;;8.80;99.90;;;;;;5053730;28;20041;-60
2023/04/29 04:02:56;;;;;;;14.75;9.23;;;8.80;99.90;;;;;;5053644;28;20126;-60
2023/04/29 04:05:24;;;;;;;19.10;10.98;;;8.80;99.90;;;;;;5055084;28;20044;-60
2023/04/29 04:07:53;;;;;;;13.20;8.38;;;8.70;99.90;;;;;;5054011;28;20037;-60
2023/04/29 04:10:19;;;;;;;18.45;10.43;;;8.80;99.90;;;;;;5054318;28;20426;-60
2023/04/29 04:12:46;;;;;;;16.05;9.70;;;8.70;99.90;;;;;;5055146;28;20149;-60
2023/04/29 04:15:12;;;;;;;14.13;9.02;;;8.70;99.90;;;;;;5055267;28;20036;-60
2023/04/29 04:17:37;;;;;;;17.58;8.63;;;8.70;99.90;;;;;;5052744;28;20534;-59
2023/04/29 04:20:04;;;;;;;15.95;9.32;;;8.70;99.90;;;;;;5054085;28;20064;-59
2023/04/29 04:22:30;;;;;;;14.77;8.13;;;8.70;99.90;;;;;;5054528;28;20047;-60
2023/04/29 04:24:55;;;;;;;16.45;9.43;;;8.70;99.90;;;;;;5036439;28;20049;-60
2023/04/29 04:27:21;;;;;;;15.40;9.82;;;8.70;99.90;;;;;;5036964;28;20041;-60
2023/04/29 04:29:47;;;;;;;15.52;8.70;;;8.70;99.90;;;;;;5053978;28;20052;-60
2023/04/29 04:32:13;;;;;;;20.55;9.60;;;8.70;99.90;;;;;;5054457;28;20128;-60
2023/04/29 04:34:38;;;;;;;16.52;9.50;;;8.70;99.90;;;;;;5053181;28;20076;-60
2023/04/29 04:37:05;;;;;;;17.38;9.55;;;8.70;99.90;;;;;;5036020;28;20063;-60
2023/04/29 04:39:31;;;;;;;17.02;10.32;;;8.70;99.90;;;;;;5054426;28;20037;-60
2023/04/29 04:41:57;;;;;;;17.63;8.00;;;8.70;99.90;;;;;;5054954;28;20062;-60
2023/04/29 04:44:22;;;;;;;14.93;8.80;;;8.70;99.90;;;;;;5052405;28;20044;-60
2023/04/29 04:46:50;;;;;;;16.35;8.48;;;8.70;99.90;;;;;;5053711;28;20037;-60
2023/04/29 04:49:16;;;;;;;17.52;8.88;;;8.70;99.90;;;;;;5054609;28;20167;-60
2023/04/29 04:51:44;;;;;;;18.73;8.57;;;8.70;99.90;;;;;;5053721;28;20115;-60
2023/04/29 04:54:11;;;;;;;13.52;9.20;;;8.70;99.90;;;;;;5053294;28;20037;-60
2023/04/29 04:56:36;;;;;;;14.50;9.40;;;8.60;99.90;;;;;;5052684;28;20045;-59
2023/04/29 04:59:03;;;;;;;16.33;8.73;;;8.70;99.90;;;;;;5052512;28;20040;-60
2023/04/29 05:01:29;;;;;;;15.63;9.48;;;8.60;99.90;;;;;;5053797;28;20037;-60
2023/04/29 05:03:54;;;;;;;19.40;9.93;;;8.60;99.90;;;;;;5053268;28;20036;-60
2023/04/29 05:06:20;;;;;;;15.75;7.80;;;8.60;99.90;;;;;;5051838;28;20122;-60
2023/04/29 05:08:46;;;;;;;12.75;8.57;;;8.50;99.90;;;;;;5052336;28;20170;-60
2023/04/29 05:11:19;;;;;;;14.80;9.18;;;8.50;99.90;;;;;;5054038;28;20057;-60
2023/04/29 05:13:45;;;;;;;16.20;8.75;;;8.50;99.90;;;;;;5052168;28;20053;-60
2023/04/29 05:16:11;;;;;;;18.70;9.80;;;8.40;99.90;;;;;;5053063;28;20124;-60
2023/04/29 05:18:37;;;;;;;16.88;7.90;;;8.50;99.90;;;;;;5052329;28;20040;-60
2023/04/29 05:21:03;;;;;;;13.40;8.43;;;8.50;99.90;;;;;;5053328;28;20363;-60
2023/04/29 05:23:28;;;;;;;16.38;8.48;;;8.50;99.90;;;;;;5052759;28;20037;-60
2023/04/29 05:25:54;;;;;;;15.20;7.80;;;8.60;99.90;;;;;;5036050;28;20489;-60
2023/04/29 05:28:20;;;;;;;14.57;7.45;;;8.60;99.90;;;;;;5053037;28;20060;-60
2023/04/29 05:30:46;;;;;;;16.88;8.70;;;8.60;99.90;;;;;;5052492;28;20052;-60
2023/04/29 05:33:12;;;;;;;15.85;7.88;;;8.70;99.90;;;;;;5052034;28;20036;-60
2023/04/29 05:35:37;;;;;;;14.77;8.18;;;8.80;99.90;;;;;;5052381;28;20528;-60
2023/04/29 05:38:03;;;;;;;17.75;9.68;;;8.80;99.90;;;;;;5047397;28;20364;-60
2023/04/29 05:40:29;;;;;;;13.98;8.13;;;8.90;99.90;;;;;;5050802;28;20461;-60
2023/04/29 05:42:55;;;;;;;15.80;7.85;;;9.00;99.90;;;;;;5052348;28;20040;-60
2023/04/29 05:45:20;;;;;;;13.05;7.55;;;9.10;99.90;;;;;;5053119;28;20044;-60
2023/04/29 05:47:46;;;;;;;16.80;7.50;;;9.20;99.90;;;;;;5051972;28;20045;-59
2023/04/29 05:50:12;;;;;;;15.93;7.50;;;9.20;99.90;;;;;;5052264;28;20033;-60
2023/04/29 05:52:38;;;;;;;16.10;6.72;;;9.20;99.90;;;;;;5052952;28;20080;-60
2023/04/29 05:55:04;;;;;;;13.80;7.20;;;9.30;99.90;;;;;;5052652;28;20052;-60
2023/04/29 05:57:30;;;;;;;15.35;7.35;;;9.40;99.90;;;;;;5051670;28;20120;-60
2023/04/29 05:59:58;;;;;;;12.13;5.88;;;9.40;99.90;;;;;;5051299;28;20045;-60
2023/04/29 06:02:24;;;;;;;14.50;7.20;;;9.50;99.90;;;;;;5033929;28;20063;-60
2023/04/29 06:04:50;;;;;;;17.20;7.13;;;9.60;99.90;;;;;;5052124;28;20040;-60
2023/04/29 06:07:17;;;;;;;13.43;7.40;;;9.60;99.90;;;;;;5050875;28;20040;-60
2023/04/29 06:09:43;;;;;;;12.98;6.65;;;9.60;99.90;;;;;;5050712;28;20061;-60
2023/04/29 06:12:09;;;;;;;13.85;7.75;;;9.70;99.90;;;;;;5043848;28;20053;-60
2023/04/29 06:14:35;;;;;;;19.17;7.28;;;9.80;99.90;;;;;;5041880;28;20497;-60
2023/04/29 06:17:01;;;;;;;20.13;8.05;;;9.80;99.90;;;;;;5048756;28;20037;-60
2023/04/29 06:19:26;;;;;;;14.40;6.82;;;9.90;99.90;;;;;;5050206;28;20037;-60
2023/04/29 06:21:52;;;;;;;19.65;8.05;;;9.90;99.90;;;;;;5049040;28;20045;-60
2023/04/29 06:24:18;;;;;;;15.38;7.03;;;10.00;99.90;;;;;;5031186;28;20036;-60
2023/04/29 06:26:43;;;;;;;19.77;7.00;;;10.10;99.90;;;;;;5050396;28;20040;-60
2023/04/29 06:29:09;;;;;;;13.63;6.63;;;10.10;99.90;;;;;;5049286;28;20045;-60
2023/04/29 06:31:35;;;;;;;19.10;6.32;;;10.10;99.90;;;;;;5047423;28;20048;-60
2023/04/29 06:34:01;;;;;;;13.95;6.45;;;10.10;99.90;;;;;;5050512;28;20036;-60
2023/04/29 06:36:27;;;;;;;17.30;7.30;;;10.20;99.90;;;;;;5048223;28;20049;-59
2023/04/29 06:38:52;;;;;;;10.32;6.53;;;10.20;99.90;;;;;;5048413;28;20111;-60
2023/04/29 06:41:18;;;;;;;12.02;5.40;;;10.30;99.90;;;;;;5049005;28;20032;-60
2023/04/29 06:43:44;;;;;;;15.80;5.63;;;10.30;99.90;;;;;;5047605;28;20036;-60
2023/04/29 06:46:10;;;;;;;15.52;6.20;;;10.30;99.90;;;;;;5049166;28;20041;-60
2023/04/29 06:48:36;;;;;;;13.55;6.20;;;10.40;99.90;;;;;;5031770;28;20151;-59
2023/04/29 06:51:02;;;;;;;12.75;6.13;;;10.50;99.90;;;;;;5031495;28;20045;-60
2023/04/29 06:53:28;;;;;;;14.15;6.22;;;10.40;99.90;;;;;;5031572;28;20076;-59
2023/04/29 06:55:53;;;;;;;11.35;5.70;;;10.50;99.90;;;;;;5048820;28;20464;-60
2023/04/29 06:58:19;;;;;;;8.95;5.05;;;10.60;99.90;;;;;;5048089;28;20421;-60
2023/04/29 07:00:49;;;;;;;13.50;5.85;;;10.60;99.90;;;;;;5048396;28;20029;-60
2023/04/29 07:03:17;;;;;;;10.73;5.55;;;10.60;99.90;;;;;;5032212;28;20142;-60
2023/04/29 07:05:44;;;;;;;13.70;6.50;;;10.70;99.90;;;;;;5047743;28;20114;-60
2023/04/29 07:08:11;;;;;;;11.60;5.70;;;10.80;99.90;;;;;;5048205;28;20080;-60
2023/04/29 07:10:37;;;;;;;10.07;5.28;;;10.80;99.90;;;;;;5047283;28;20057;-60
2023/04/29 07:13:03;;;;;;;10.65;4.93;;;10.90;99.90;;;;;;5064062;28;20744;-60
2023/04/29 07:15:32;;;;;;;10.40;5.43;;;10.90;99.90;;;;;;5047602;28;20143;-60
2023/04/29 07:17:59;;;;;;;12.45;4.50;;;10.90;99.90;;;;;;5049780;28;20079;-60
2023/04/29 07:20:26;;;;;;;12.32;4.60;;;10.90;99.90;;;;;;5046161;28;20053;-60
2023/04/29 07:22:52;;;;;;;9.68;5.00;;;11.00;99.90;;;;;;5044133;28;20891;-60
2023/04/29 07:25:17;;;;;;;10.82;5.05;;;11.00;99.90;;;;;;5047256;28;20135;-60
2023/04/29 07:27:43;;;;;;;10.73;4.55;;;11.00;99.90;;;;;;5048166;28;20466;-60
2023/04/29 07:30:09;;;;;;;11.50;4.72;;;11.10;99.90;;;;;;5046426;28;20754;-60
2023/04/29 07:32:35;;;;;;;10.23;4.53;;;11.10;99.90;;;;;;5047518;28;20045;-60
2023/04/29 07:35:02;;;;;;;12.43;4.18;;;11.10;99.90;;;;;;5048327;28;20459;-60
2023/04/29 07:37:27;;;;;;;12.75;4.18;;;11.10;99.90;;;;;;5047934;28;20041;-60
2023/04/29 07:39:53;;;;;;;7.55;3.83;;;11.10;99.90;;;;;;5048271;28;20091;-60
2023/04/29 07:42:19;;;;;;;8.13;4.45;;;11.10;99.90;;;;;;5048477;28;20100;-60
2023/04/29 07:44:45;;;;;;;11.18;4.65;;;11.20;99.90;;;;;;5047870;28;20044;-60
2023/04/29 07:47:11;;;;;;;11.07;4.30;;;11.30;99.90;;;;;;5046973;28;20458;-60
2023/04/29 07:49:37;;;;;;;9.52;5.15;;;11.30;99.90;;;;;;5046398;28;20053;-62
2023/04/29 07:52:06;;;;;;;8.07;4.43;;;11.40;99.90;;;;;;5030926;28;20033;-60
2023/04/29 07:54:32;;;;;;;7.03;4.38;;;11.50;99.90;;;;;;5046015;28;20056;-62
2023/04/29 07:56:58;;;;;;;10.15;4.38;;;11.50;99.90;;;;;;5048248;28;20048;-60
2023/04/29 07:59:23;;;;;;;11.10;5.15;;;11.60;99.90;;;;;;5046579;28;20063;-61
2023/04/29 08:01:49;;;;;;;11.65;5.15;;;11.60;99.90;;;;;;5046658;28;20041;-61
2023/04/29 08:04:14;;;;;;;11.90;5.28;;;11.70;99.90;;;;;;5047381;28;20083;-60
2023/04/29 08:06:43;;;;;;;11.30;4.50;;;11.70;99.90;;;;;;5048055;28;20044;-62
2023/04/29 08:09:09;;;;;;;10.25;4.70;;;11.70;99.90;;;;;;5047048;28;20124;-61
2023/04/29 08:11:35;;;;;;;9.80;4.60;;;11.70;99.90;;;;;;5049471;28;20045;-61
2023/04/29 08:14:00;;;;;;;9.60;4.47;;;11.70;99.90;;;;;;5050961;28;20181;-61
2023/04/29 08:16:26;;;;;;;8.20;4.80;;;11.80;99.90;;;;;;5031867;28;20081;-61
2023/04/29 08:18:53;;;;;;;7.90;4.53;;;11.80;99.90;;;;;;5051264;28;20041;-61
2023/04/29 08:21:19;;;;;;;10.90;4.85;;;11.80;99.90;;;;;;5048692;28;20037;-61
2023/04/29 08:23:45;;;;;;;14.35;4.70;;;11.80;99.90;;;;;;5032321;28;20029;-60
2023/04/29 08:26:14;;;;;;;9.13;3.90;;;11.90;99.90;;;;;;5049251;28;20044;-61
2023/04/29 08:28:40;;;;;;;10.85;4.75;;;11.90;99.90;;;;;;5051273;28;20194;-61
2023/04/29 08:31:06;;;;;;;8.90;4.20;;;11.90;99.90;;;;;;5052419;28;20111;-61
2023/04/29 08:33:35;;;;;;;11.93;4.90;;;11.90;99.90;;;;;;5053360;28;20052;-61
2023/04/29 08:36:05;;;;;;;9.07;4.55;;;11.90;99.90;;;;;;5053376;28;20037;-61
2023/04/29 08:38:31;;;;;;;10.50;4.95;;;12.00;99.90;;;;;;5053401;28;20048;-61
2023/04/29 08:40:57;;;;;;;9.75;5.32;;;12.00;99.90;;;;;;5054034;28;20074;-61
2023/04/29 08:43:23;;;;;;;12.70;5.25;;;12.10;99.90;;;;;;5053505;28;20940;-61
2023/04/29 08:45:49;;;;;;;11.55;6.00;;;12.10;99.90;;;;;;5054366;28;20041;-61
2023/04/29 08:48:18;;;;;;;12.38;5.32;;;12.20;99.90;;;;;;5036948;28;20122;-61
2023/04/29 08:50:44;;;;;;;10.10;4.80;;;12.30;99.90;;;;;;5052551;28;20048;-61
2023/04/29 08:53:12;;;;;;;10.55;4.63;;;12.30;99.90;;;;;;5053730;28;20037;-61
2023/04/29 08:55:46;;;;;;;8.85;5.30;;;12.20;99.90;;;;;;5052501;28;20045;-61
2023/04/29 08:58:14;;;;;;;10.63;5.17;;;12.30;99.90;;;;;;5052598;28;20044;-61
2023/04/29 09:00:42;;;;;;;9.75;5.45;;;12.40;99.90;;;;;;5036128;28;20283;-61
2023/04/29 09:03:16;;;;;;;12.68;5.85;;;12.50;99.90;;;;;;5053401;28;20049;-61
2023/04/29 09:05:44;;;;;;;11.02;5.57;;;12.60;99.90;;;;;;5035614;28;20041;-60
2023/04/29 09:08:11;;;;;;;15.85;6.97;;;12.70;99.90;;;;;;5054635;28;20037;-59
2023/04/29 09:10:40;;;;;;;11.90;5.07;;;12.70;99.90;;;;;;5052350;28;20060;-59
2023/04/29 09:13:06;;;;;;;11.43;5.22;;;12.70;99.90;;;;;;5053843;28;20048;-60
2023/04/29 09:15:39;;;;;;;8.63;4.65;;;12.70;99.90;;;;;;5052693;28;20091;-59
2023/04/29 09:18:04;;;;;;;11.27;5.07;;;12.80;99.90;;;;;;5053150;28;20513;-60
2023/04/29 09:20:30;;;;;;;13.60;5.93;;;12.80;99.90;;;;;;5051818;28;20084;-60
2023/04/29 09:23:02;;;;;;;12.82;5.13;;;12.90;99.90;;;;;;5053013;28;20044;-60
2023/04/29 09:25:28;;;;;;;13.18;5.88;;;12.90;99.90;;;;;;5051696;28;20037;-60
2023/04/29 09:27:54;;;;;;;14.30;5.68;;;12.80;99.90;;;;;;5052957;28;20073;-60
2023/04/29 09:30:21;;;;;;;11.85;5.53;;;12.80;99.90;;;;;;5053730;28;20033;-60
2023/04/29 09:33:07;;;;;;;10.80;3.88;;;12.70;99.90;;;;;;5052392;28;20394;-60
2023/04/29 09:35:34;;;;;;;12.85;5.47;;;12.80;99.90;;;;;;5052179;28;20037;-60
2023/04/29 09:38:13;;;;;;;11.18;4.85;;;12.80;99.90;;;;;;5053863;28;20314;-59
2023/04/29 09:40:40;;;;;;;9.00;4.10;;;12.90;99.90;;;;;;5051866;28;20477;-60
2023/04/29 09:43:15;;;;;;;8.30;4.55;;;12.90;99.90;;;;;;5053412;28;20036;-60
2023/04/29 09:45:42;;;;;;;7.22;3.83;;;12.90;99.90;;;;;;5053484;28;20049;-59
2023/04/29 09:48:09;;;;;;;6.22;3.10;;;12.90;99.90;;;;;;5053038;28;20041;-60
2023/04/29 09:50:38;;;;;;;8.15;3.47;;;13.00;99.90;;;;;;5051872;28;20132;-60
2023/04/29 09:53:09;;;;;;;6.78;3.47;;;13.10;99.90;;;;;;5052622;28;20136;-60
2023/04/29 09:56:01;;;;;;;8.10;3.80;;;13.20;99.90;;;;;;5051823;28;20528;-60
2023/04/29 09:58:30;;;;;;;9.60;3.33;;;13.20;99.90;;;;;;5048825;28;20064;-60
2023/04/29 10:01:00;;;;;;;8.05;3.95;;;13.20;99.90;;;;;;5051512;28;20041;-60
2023/04/29 10:03:34;;;;;;;9.55;3.65;;;13.20;99.90;;;;;;5051853;28;20666;-61
2023/04/29 10:06:01;;;;;;;8.77;3.80;;;13.30;99.90;;;;;;5052478;28;20120;-60
2023/04/29 10:08:28;;;;;;;7.22;3.80;;;13.20;99.90;;;;;;5034079;28;20044;-60
2023/04/29 10:10:58;;;;;;;6.65;2.60;;;13.10;99.90;;;;;;5053025;28;20382;-60
2023/04/29 10:13:25;;;;;;;7.75;3.03;;;13.00;99.90;;;;;;5035091;28;20439;-60
2023/04/29 10:16:11;;;;;;;12.85;3.70;;;13.00;99.90;;;;;;5034672;28;20037;-61
2023/04/29 10:18:40;;;;;;;6.28;2.92;;;12.90;99.90;;;;;;5051327;28;20048;-61
2023/04/29 10:21:10;;;;;;;7.50;2.78;;;12.80;99.90;;;;;;5051926;28;20111;-61
2023/04/29 10:23:37;;;;;;;8.98;3.60;;;12.70;99.90;;;;;;5050371;28;20041;-60
2023/04/29 10:26:04;;;;;;;8.90;3.30;;;12.70;99.90;;;;;;5035245;28;20045;-60
2023/04/29 10:28:31;;;;;;;6.38;3.67;;;12.70;99.90;;;;;;5052380;28;20486;-60
2023/04/29 10:31:02;;;;;;;6.20;3.33;;;12.80;99.90;;;;;;5034434;28;20049;-60
2023/04/29 10:33:31;;;;;;;8.43;3.42;;;12.90;99.90;;;;;;5052442;28;20120;-60
2023/04/29 10:35:57;;;;;;;7.93;2.95;;;12.90;99.90;;;;;;5051087;28;20869;-60
2023/04/29 10:38:40;;;;;;;6.07;3.20;;;12.90;99.90;;;;;;5050190;28;20051;-60
2023/04/29 10:41:27;;;;;;;6.55;2.78;;;13.00;99.90;;;;;;5032423;28;20045;-59
2023/04/29 10:43:53;;;;;;;5.30;2.55;;;12.90;99.90;;;;;;5041971;28;20091;-60
2023/04/29 10:46:25;;;;;;;5.93;2.63;;;12.90;99.90;;;;;;5051345;28;20044;-60
2023/04/29 10:49:01;;;;;;;5.53;2.67;;;13.00;99.90;;;;;;5052595;28;20093;-60
2023/04/29 10:51:44;;;;;;;5.63;2.45;;;13.00;99.90;;;;;;5051679;28;20037;-60
2023/04/29 10:54:14;;;;;;;6.40;2.25;;;13.00;99.90;;;;;;5050986;28;20075;-60
2023/04/29 10:56:53;;;;;;;8.00;2.95;;;13.00;99.90;;;;;;5050774;28;20068;-60
2023/04/29 10:59:41;;;;;;;5.50;2.38;;;13.20;99.90;;;;;;5050973;28;20434;-60
2023/04/29 11:02:09;;;;;;;7.88;2.35;;;13.20;99.90;;;;;;5051160;28;20474;-60
2023/04/29 11:05:10;;;;;;;7.20;3.30;;;13.20;99.90;;;;;;5051357;28;20052;-60
2023/04/29 11:07:35;;;;;;;8.43;2.88;;;13.20;99.90;;;;;;5050931;28;20861;-60
2023/04/29 11:10:01;;;;;;;6.43;2.42;;;13.20;99.90;;;;;;5050864;28;20052;-59
2023/04/29 11:12:27;;;;;;;9.55;2.97;;;13.20;99.90;;;;;;5066699;28;20371;-59
2023/04/29 11:15:00;;;;;;;7.88;2.88;;;13.20;99.90;;;;;;5034592;28;20047;-59
2023/04/29 11:17:33;;;;;;;5.40;2.60;;;13.20;99.90;;;;;;5050771;28;20041;-59
2023/04/29 11:20:00;;;;;;;5.65;2.50;;;13.10;99.90;;;;;;5050177;28;20040;-60
2023/04/29 11:22:29;;;;;;;6.55;2.30;;;13.10;99.90;;;;;;5050304;28;20037;-60
2023/04/29 11:25:05;;;;;;;5.18;2.40;;;13.00;99.90;;;;;;5051342;28;20033;-60
2023/04/29 11:27:32;;;;;;;5.38;2.60;;;13.20;99.90;;;;;;5051683;28;20462;-59
2023/04/29 11:29:59;;;;;;;8.45;3.05;;;13.10;99.90;;;;;;5052144;28;20119;-59
2023/04/29 11:32:27;;;;;;;7.53;2.80;;;13.20;99.90;;;;;;5050614;28;20048;-59
2023/04/29 11:34:52;;;;;;;4.85;2.30;;;13.40;99.90;;;;;;5050543;28;20402;-59
2023/04/29 11:37:23;;;;;;;7.07;3.08;;;13.40;99.90;;;;;;5051575;28;20033;-60
2023/04/29 11:40:01;;;;;;;7.43;2.80;;;13.50;99.90;;;;;;5051540;28;20045;-60
2023/04/29 11:42:27;;;;;;;7.68;2.75;;;13.60;99.90;;;;;;5048910;28;20066;-59
2023/04/29 11:44:59;;;;;;;5.05;2.50;;;13.50;99.90;;;;;;5050608;28;20041;-60
2023/04/29 11:47:29;;;;;;;6.13;2.80;;;13.60;99.90;;;;;;5050227;28;20052;-59
2023/04/29 11:50:03;;;;;;;6.63;2.40;;;13.50;99.90;;;;;;5051933;28;20085;-60
2023/04/29 11:52:29;;;;;;;7.43;3.05;;;13.60;99.90;;;;;;5049970;28;20084;-61
2023/04/29 11:54:57;;;;;;;6.38;2.28;;;13.60;99.90;;;;;;5064816;28;20037;-60
2023/04/29 11:57:23;;;;;;;5.85;2.10;;;13.60;99.90;;;;;;5049843;28;20032;-61
2023/04/29 11:59:49;;;;;;;7.95;1.80;;;13.70;99.50;;;;;;5050793;28;20040;-61
2023/04/29 12:02:15;;;;;;;6.03;2.50;;;13.80;97.00;;;;;;5050891;28;20037;-61
2023/04/29 12:04:46;;;;;;;5.95;2.20;;;13.70;96.60;;;;;;5052381;28;20045;-61
2023/04/29 12:07:16;;;;;;;8.77;2.83;;;13.80;96.00;;;;;;5053862;28;20044;-61
2023/04/29 12:09:46;;;;;;;5.03;2.10;;;13.90;96.80;;;;;;5037027;28;20049;-62
2023/04/29 12:12:13;;;;;;;5.90;2.05;;;13.80;96.30;;;;;;5053563;28;20072;-61
2023/04/29 12:14:40;;;;;;;5.55;1.83;;;13.80;96.10;;;;;;5052776;28;20051;-61
2023/04/29 12:17:06;;;;;;;5.85;2.10;;;13.80;96.20;;;;;;5052727;28;20076;-61
2023/04/29 12:19:32;;;;;;;5.53;2.13;;;13.90;96.00;;;;;;5052436;28;20069;-61
2023/04/29 12:21:59;;;;;;;4.07;1.98;;;14.10;95.50;;;;;;5047038;28;20422;-61
2023/04/29 12:24:24;;;;;;;5.18;1.65;;;14.20;94.40;;;;;;5016759;28;20089;-61
2023/04/29 12:26:50;;;;;;;4.25;1.65;;;14.30;94.50;;;;;;5050706;28;20505;-62
2023/04/29 12:29:19;;;;;;;3.92;1.50;;;14.30;93.60;;;;;;5051997;28;20055;-61
2023/04/29 12:31:46;;;;;;;6.22;1.90;;;14.40;93.60;;;;;;5036374;28;20402;-61
2023/04/29 12:34:12;;;;;;;4.47;1.75;;;14.50;92.90;;;;;;5037109;28;20040;-61
2023/04/29 12:36:41;;;;;;;5.28;2.00;;;14.50;92.60;;;;;;5052345;28;20041;-61
2023/04/29 12:39:09;;;;;;;4.20;2.00;;;14.60;93.20;;;;;;5053883;28;20052;-61
2023/04/29 12:41:39;;;;;;;5.45;2.10;;;14.60;93.80;;;;;;5054306;28;20075;-61
2023/04/29 12:44:05;;;;;;;6.95;2.60;;;14.70;93.80;;;;;;5036295;28;20037;-61